createdAt,value
2022-12-05T00:00:21.359Z,931.30
2022-12-05T00:01:21.380Z,931.30
2022-12-05T00:02:21.523Z,931.36
2022-12-05T00:03:21.416Z,931.40
2022-12-05T00:04:21.523Z,931.40
2022-12-05T00:05:21.442Z,931.42
2022-12-05T00:06:21.459Z,931.40
2022-12-05T00:07:21.478Z,931.43
2022-12-05T00:08:21.504Z,931.41
2022-12-05T00:09:21.510Z,931.43
2022-12-05T00:10:21.534Z,931.49
2022-12-05T00:11:21.560Z,931.50
2022-12-05T00:12:21.571Z,931.51
2022-12-05T00:13:21.579Z,931.52
2022-12-05T00:14:21.595Z,931.53
2022-12-05T00:15:21.615Z,931.54
2022-12-05T00:16:21.703Z,931.53
2022-12-05T00:17:21.647Z,931.55
2022-12-05T00:18:21.695Z,931.57
2022-12-05T00:19:21.689Z,931.60
2022-12-05T00:20:21.708Z,931.61
2022-12-05T00:21:21.722Z,931.63
2022-12-05T00:22:21.733Z,931.66
2022-12-05T00:23:21.749Z,931.67
2022-12-05T00:24:21.776Z,931.70
2022-12-05T00:25:21.782Z,931.68
2022-12-05T00:26:21.812Z,931.69
2022-12-05T00:27:21.817Z,931.71
2022-12-05T00:28:21.837Z,931.70
2022-12-05T00:29:21.853Z,931.70
2022-12-05T00:30:21.876Z,931.73
2022-12-05T00:31:21.937Z,931.74
2022-12-05T00:32:21.962Z,931.74
2022-12-05T00:33:21.920Z,931.78
2022-12-05T00:34:21.963Z,931.73
2022-12-05T00:35:21.955Z,931.75
2022-12-05T00:36:21.973Z,931.79
2022-12-05T00:37:21.988Z,931.81
2022-12-05T00:38:22.006Z,931.78
2022-12-05T00:39:22.027Z,931.78
2022-12-05T00:40:22.051Z,931.77
2022-12-05T00:41:22.058Z,931.76
2022-12-05T00:42:22.081Z,931.79
2022-12-05T00:43:22.099Z,931.79
2022-12-05T00:44:22.109Z,931.83
2022-12-05T00:45:22.129Z,931.78
2022-12-05T00:46:22.267Z,931.81
2022-12-05T00:47:22.167Z,931.85
2022-12-05T00:48:22.184Z,931.83
2022-12-05T00:49:22.195Z,931.86
2022-12-05T00:50:22.231Z,931.82
2022-12-05T00:51:22.233Z,931.87
2022-12-05T00:52:22.253Z,931.88
2022-12-05T00:53:22.269Z,931.86
2022-12-05T00:54:22.278Z,931.92
2022-12-05T00:55:22.294Z,931.90
2022-12-05T00:56:22.323Z,931.93
2022-12-05T00:57:22.334Z,931.90
2022-12-05T00:58:22.354Z,931.90
2022-12-05T00:59:22.365Z,931.94
2022-12-05T01:00:22.389Z,931.89
2022-12-05T01:01:22.498Z,931.94
2022-12-05T01:02:22.413Z,931.91
2022-12-05T01:03:22.540Z,931.91
2022-12-05T01:04:22.450Z,931.93
2022-12-05T01:05:22.471Z,931.89
2022-12-05T01:06:22.511Z,931.90
2022-12-05T01:07:22.500Z,931.89
2022-12-05T01:08:22.516Z,931.92
2022-12-05T01:09:22.531Z,931.92
2022-12-05T01:10:22.549Z,931.92
2022-12-05T01:11:22.574Z,931.97
2022-12-05T01:12:22.592Z,931.97
2022-12-05T01:13:22.608Z,931.97
2022-12-05T01:14:22.618Z,931.98
2022-12-05T01:15:22.642Z,931.98
2022-12-05T01:16:22.704Z,932.01
2022-12-05T01:17:22.677Z,932.02
2022-12-05T01:18:22.693Z,932.00
2022-12-05T01:19:22.712Z,932.01
2022-12-05T01:20:22.727Z,931.99
2022-12-05T01:21:22.743Z,932.01
2022-12-05T01:22:22.776Z,932.03
2022-12-05T01:23:22.770Z,932.02
2022-12-05T01:24:22.794Z,932.04
2022-12-05T01:25:22.811Z,932.04
2022-12-05T01:26:22.829Z,932.01
2022-12-05T01:27:22.845Z,932.02
2022-12-05T01:28:22.917Z,932.04
2022-12-05T01:29:22.876Z,932.06
2022-12-05T01:30:22.897Z,932.05
2022-12-05T01:31:22.983Z,932.02
2022-12-05T01:32:23.002Z,932.05
2022-12-05T01:33:22.944Z,932.03
2022-12-05T01:34:22.972Z,931.98
2022-12-05T01:35:22.973Z,931.99
2022-12-05T01:36:22.991Z,931.98
2022-12-05T01:37:23.009Z,931.96
2022-12-05T01:38:23.047Z,931.99
2022-12-05T01:39:23.050Z,932.00
2022-12-05T01:40:23.076Z,931.99
2022-12-05T01:41:23.081Z,931.98
2022-12-05T01:42:26.143Z,931.97
2022-12-05T01:43:23.108Z,931.97
2022-12-05T01:44:23.127Z,931.96
2022-12-05T01:45:23.151Z,931.99
2022-12-05T01:46:23.214Z,931.98
2022-12-05T01:47:23.185Z,931.97
2022-12-05T01:48:23.193Z,931.93
2022-12-05T01:49:23.218Z,931.95
2022-12-05T01:50:23.235Z,931.96
2022-12-05T01:51:23.244Z,931.97
2022-12-05T01:52:23.269Z,931.95
2022-12-05T01:53:23.286Z,931.94
2022-12-05T01:54:23.351Z,931.96
2022-12-05T01:55:23.320Z,931.94
2022-12-05T01:56:23.335Z,931.92
2022-12-05T01:57:23.353Z,931.95
2022-12-05T01:58:23.369Z,931.96
2022-12-05T01:59:23.379Z,931.94
2022-12-05T02:00:23.405Z,931.91
2022-12-05T02:01:23.505Z,931.91
2022-12-05T02:02:23.495Z,931.93
2022-12-05T02:03:23.448Z,931.95
2022-12-05T02:04:23.470Z,931.94
2022-12-05T02:05:23.891Z,931.93
2022-12-05T02:06:23.498Z,931.91
2022-12-05T02:07:23.513Z,931.92
2022-12-05T02:08:23.583Z,931.92
2022-12-05T02:09:23.569Z,931.89
2022-12-05T02:10:23.590Z,931.85
2022-12-05T02:11:23.582Z,931.84
2022-12-05T02:12:23.605Z,931.84
2022-12-05T02:13:25.066Z,931.89
2022-12-05T02:14:23.638Z,931.86
2022-12-05T02:15:23.656Z,931.83
2022-12-05T02:16:23.732Z,931.85
2022-12-05T02:17:23.685Z,931.84
2022-12-05T02:18:23.708Z,931.84
2022-12-05T02:19:23.726Z,931.86
2022-12-05T02:20:23.741Z,931.84
2022-12-05T02:21:23.750Z,931.78
2022-12-05T02:22:23.773Z,931.78
2022-12-05T02:23:23.790Z,931.79
2022-12-05T02:24:23.801Z,931.76
2022-12-05T02:25:23.823Z,931.78
2022-12-05T02:26:24.058Z,931.74
2022-12-05T02:27:23.850Z,931.72
2022-12-05T02:28:23.868Z,931.68
2022-12-05T02:29:23.885Z,931.68
2022-12-05T02:30:24.104Z,931.66
2022-12-05T02:31:24.054Z,931.69
2022-12-05T02:32:23.942Z,931.68
2022-12-05T02:33:23.950Z,931.65
2022-12-05T02:34:23.969Z,931.64
2022-12-05T02:35:23.987Z,931.63
2022-12-05T02:36:24.009Z,931.64
2022-12-05T02:37:24.018Z,931.59
2022-12-05T02:38:24.043Z,931.62
2022-12-05T02:39:24.060Z,931.55
2022-12-05T02:40:24.068Z,931.58
2022-12-05T02:41:24.086Z,931.55
2022-12-05T02:42:24.133Z,931.53
2022-12-05T02:43:24.123Z,931.52
2022-12-05T02:44:24.138Z,931.50
2022-12-05T02:45:24.161Z,931.53
2022-12-05T02:46:24.272Z,931.50
2022-12-05T02:47:24.186Z,931.50
2022-12-05T02:48:24.205Z,931.47
2022-12-05T02:49:24.237Z,931.46
2022-12-05T02:50:24.236Z,931.48
2022-12-05T02:51:24.267Z,931.49
2022-12-05T02:52:24.280Z,931.47
2022-12-05T02:53:24.295Z,931.43
2022-12-05T02:54:24.314Z,931.41
2022-12-05T02:55:24.333Z,931.38
2022-12-05T02:56:24.439Z,931.41
2022-12-05T02:57:24.364Z,931.38
2022-12-05T02:58:24.408Z,931.36
2022-12-05T02:59:24.395Z,931.33
2022-12-05T03:00:24.412Z,931.32
2022-12-05T03:01:24.551Z,931.29
2022-12-05T03:02:24.457Z,931.30
2022-12-05T03:03:24.457Z,931.27
2022-12-05T03:04:24.571Z,931.27
2022-12-05T03:05:24.499Z,931.26
2022-12-05T03:06:24.510Z,931.20
2022-12-05T03:07:24.529Z,931.21
2022-12-05T03:08:24.538Z,931.18
2022-12-05T03:09:24.574Z,931.17
2022-12-05T03:10:24.579Z,931.16
2022-12-05T03:11:24.598Z,931.15
2022-12-05T03:12:24.605Z,931.17
2022-12-05T03:13:24.629Z,931.15
2022-12-05T03:14:24.662Z,931.18
2022-12-05T03:15:24.664Z,931.16
2022-12-05T03:16:24.748Z,931.15
2022-12-05T03:17:24.690Z,931.15
2022-12-05T03:18:24.714Z,931.14
2022-12-05T03:19:24.733Z,931.10
2022-12-05T03:20:24.740Z,931.11
2022-12-05T03:21:24.765Z,931.09
2022-12-05T03:22:24.785Z,931.10
2022-12-05T03:23:24.791Z,931.09
2022-12-05T03:24:24.813Z,931.07
2022-12-05T03:25:24.827Z,931.04
2022-12-05T03:26:24.847Z,931.02
2022-12-05T03:27:24.866Z,931.02
2022-12-05T03:28:24.873Z,931.02
2022-12-05T03:29:24.898Z,931.00
2022-12-05T03:30:25.027Z,930.99
2022-12-05T03:31:25.000Z,930.97
2022-12-05T03:32:24.948Z,930.94
2022-12-05T03:33:24.965Z,930.93
2022-12-05T03:34:24.983Z,930.92
2022-12-05T03:35:24.999Z,930.89
2022-12-05T03:36:25.018Z,930.88
2022-12-05T03:37:25.027Z,930.86
2022-12-05T03:38:25.041Z,930.86
2022-12-05T03:39:25.057Z,930.87
2022-12-05T03:40:25.081Z,930.83
2022-12-05T03:41:25.090Z,930.80
2022-12-05T03:42:25.107Z,930.77
2022-12-05T03:43:25.133Z,930.76
2022-12-05T03:44:25.141Z,930.75
2022-12-05T03:45:25.158Z,930.73
2022-12-05T03:46:25.270Z,930.69
2022-12-05T03:47:25.199Z,930.69
2022-12-05T03:48:25.215Z,930.69
2022-12-05T03:49:28.035Z,930.66
2022-12-05T03:50:25.250Z,930.66
2022-12-05T03:51:25.266Z,930.69
2022-12-05T03:52:25.276Z,930.66
2022-12-05T03:53:25.294Z,930.68
2022-12-05T03:54:25.314Z,930.66
2022-12-05T03:55:25.326Z,930.66
2022-12-05T03:56:25.340Z,930.67
2022-12-05T03:57:25.366Z,930.66
2022-12-05T03:58:25.382Z,930.64
2022-12-05T03:59:25.402Z,930.66
2022-12-05T04:00:25.408Z,930.65
2022-12-05T04:01:25.458Z,930.64
2022-12-05T04:02:25.472Z,930.64
2022-12-05T04:03:25.510Z,930.65
2022-12-05T04:04:25.485Z,930.64
2022-12-05T04:05:25.500Z,930.62
2022-12-05T04:06:25.508Z,930.63
2022-12-05T04:07:25.525Z,930.61
2022-12-05T04:08:25.542Z,930.60
2022-12-05T04:09:25.565Z,930.60
2022-12-05T04:10:25.577Z,930.60
2022-12-05T04:11:25.592Z,930.63
2022-12-05T04:12:25.616Z,930.60
2022-12-05T04:13:25.625Z,930.59
2022-12-05T04:14:25.648Z,930.58
2022-12-05T04:15:25.660Z,930.59
2022-12-05T04:16:25.786Z,930.60
2022-12-05T04:17:25.691Z,930.56
2022-12-05T04:18:25.731Z,930.59
2022-12-05T04:19:25.726Z,930.59
2022-12-05T04:20:25.750Z,930.57
2022-12-05T04:21:25.758Z,930.56
2022-12-05T04:22:25.773Z,930.55
2022-12-05T04:23:25.793Z,930.56
2022-12-05T04:24:25.818Z,930.54
2022-12-05T04:25:25.823Z,930.51
2022-12-05T04:26:25.842Z,930.54
2022-12-05T04:27:25.866Z,930.49
2022-12-05T04:28:25.881Z,930.51
2022-12-05T04:29:25.890Z,930.49
2022-12-05T04:30:25.912Z,930.43
2022-12-05T04:31:26.014Z,930.41
2022-12-05T04:32:25.941Z,930.39
2022-12-05T04:33:25.965Z,930.38
2022-12-05T04:34:25.996Z,930.40
2022-12-05T04:35:25.991Z,930.33
2022-12-05T04:36:26.018Z,930.38
2022-12-05T04:37:26.023Z,930.36
2022-12-05T04:38:26.040Z,930.37
2022-12-05T04:39:26.064Z,930.34
2022-12-05T04:40:26.074Z,930.34
2022-12-05T04:41:26.097Z,930.33
2022-12-05T04:42:26.108Z,930.37
2022-12-05T04:43:26.127Z,930.35
2022-12-05T04:44:26.148Z,930.35
2022-12-05T04:45:26.164Z,930.35
2022-12-05T04:46:26.286Z,930.35
2022-12-05T04:47:26.189Z,930.35
2022-12-05T04:48:26.217Z,930.31
2022-12-05T04:49:26.222Z,930.29
2022-12-05T04:50:26.269Z,930.34
2022-12-05T04:51:26.264Z,930.32
2022-12-05T04:52:26.274Z,930.30
2022-12-05T04:53:26.297Z,930.31
2022-12-05T04:54:26.317Z,930.28
2022-12-05T04:55:26.324Z,930.30
2022-12-05T04:56:26.341Z,930.31
2022-12-05T04:57:26.362Z,930.28
2022-12-05T04:58:26.381Z,930.27
2022-12-05T04:59:26.390Z,930.24
2022-12-05T05:00:26.617Z,930.26
2022-12-05T05:01:26.463Z,930.22
2022-12-05T05:02:26.484Z,930.24
2022-12-05T05:03:26.456Z,930.21
2022-12-05T05:04:26.473Z,930.19
2022-12-05T05:05:26.494Z,930.18
2022-12-05T05:06:26.528Z,930.17
2022-12-05T05:07:26.524Z,930.20
2022-12-05T05:08:26.540Z,930.18
2022-12-05T05:09:26.562Z,930.19
2022-12-05T05:10:26.578Z,930.18
2022-12-05T05:11:26.589Z,930.19
2022-12-05T05:12:26.615Z,930.17
2022-12-05T05:13:26.628Z,930.16
2022-12-05T05:14:26.641Z,930.17
2022-12-05T05:15:26.654Z,930.16
2022-12-05T05:16:26.768Z,930.13
2022-12-05T05:17:26.740Z,930.15
2022-12-05T05:18:26.712Z,930.16
2022-12-05T05:19:26.729Z,930.15
2022-12-05T05:20:26.760Z,930.15
2022-12-05T05:21:26.760Z,930.14
2022-12-05T05:22:26.792Z,930.14
2022-12-05T05:23:26.787Z,930.14
2022-12-05T05:24:26.810Z,930.19
2022-12-05T05:25:26.828Z,930.19
2022-12-05T05:26:26.844Z,930.18
2022-12-05T05:27:26.860Z,930.20
2022-12-05T05:28:26.872Z,930.19
2022-12-05T05:29:26.894Z,930.15
2022-12-05T05:30:26.903Z,930.17
2022-12-05T05:31:27.109Z,930.15
2022-12-05T05:32:26.944Z,930.19
2022-12-05T05:33:26.959Z,930.18
2022-12-05T05:34:26.969Z,930.16
2022-12-05T05:35:26.986Z,930.20
2022-12-05T05:36:27.012Z,930.17
2022-12-05T05:37:27.025Z,930.16
2022-12-05T05:38:27.058Z,930.20
2022-12-05T05:39:27.059Z,930.19
2022-12-05T05:40:27.069Z,930.18
2022-12-05T05:41:27.088Z,930.20
2022-12-05T05:42:27.109Z,930.20
2022-12-05T05:43:27.127Z,930.19
2022-12-05T05:44:27.141Z,930.20
2022-12-05T05:45:27.150Z,930.20
2022-12-05T05:46:27.203Z,930.17
2022-12-05T05:47:27.193Z,930.19
2022-12-05T05:48:27.209Z,930.21
2022-12-05T05:49:27.224Z,930.20
2022-12-05T05:50:27.235Z,930.22
2022-12-05T05:51:27.250Z,930.19
2022-12-05T05:52:27.269Z,930.23
2022-12-05T05:53:27.292Z,930.21
2022-12-05T05:54:27.329Z,930.20
2022-12-05T05:55:27.318Z,930.22
2022-12-05T05:56:27.347Z,930.21
2022-12-05T05:57:27.348Z,930.21
2022-12-05T05:58:27.376Z,930.17
2022-12-05T05:59:27.392Z,930.20
2022-12-05T06:00:27.406Z,930.19
2022-12-05T06:01:27.424Z,930.20
2022-12-05T06:02:27.484Z,930.15
2022-12-05T06:03:27.637Z,930.15
2022-12-05T06:04:27.528Z,930.16
2022-12-05T06:05:27.480Z,930.14
2022-12-05T06:06:27.504Z,930.16
2022-12-05T06:07:27.526Z,930.12
2022-12-05T06:08:27.615Z,930.10
2022-12-05T06:09:27.548Z,930.13
2022-12-05T06:10:27.587Z,930.12
2022-12-05T06:11:27.590Z,930.11
2022-12-05T06:12:27.637Z,930.14
2022-12-05T06:13:27.622Z,930.14
2022-12-05T06:14:27.629Z,930.14
2022-12-05T06:15:27.647Z,930.18
2022-12-05T06:16:27.716Z,930.14
2022-12-05T06:17:27.680Z,930.16
2022-12-05T06:18:27.696Z,930.16
2022-12-05T06:19:27.722Z,930.16
2022-12-05T06:20:27.740Z,930.13
2022-12-05T06:21:27.761Z,930.15
2022-12-05T06:22:27.761Z,930.16
2022-12-05T06:23:27.785Z,930.15
2022-12-05T06:24:27.802Z,930.16
2022-12-05T06:25:27.818Z,930.16
2022-12-05T06:26:27.857Z,930.18
2022-12-05T06:27:27.844Z,930.21
2022-12-05T06:28:27.861Z,930.20
2022-12-05T06:29:32.364Z,930.21
2022-12-05T06:30:27.900Z,930.23
2022-12-05T06:31:27.960Z,930.25
2022-12-05T06:32:28.016Z,930.25
2022-12-05T06:33:27.943Z,930.25
2022-12-05T06:34:27.966Z,930.26
2022-12-05T06:35:27.987Z,930.23
2022-12-05T06:36:27.993Z,930.27
2022-12-05T06:37:28.008Z,930.23
2022-12-05T06:38:28.032Z,930.23
2022-12-05T06:39:28.052Z,930.24
2022-12-05T06:40:28.060Z,930.23
2022-12-05T06:41:28.074Z,930.28
2022-12-05T06:42:28.123Z,930.28
2022-12-05T06:43:28.108Z,930.28
2022-12-05T06:44:28.156Z,930.29
2022-12-05T06:45:28.187Z,930.26
2022-12-05T06:46:28.280Z,930.32
2022-12-05T06:47:28.181Z,930.29
2022-12-05T06:48:28.198Z,930.25
2022-12-05T06:49:32.669Z,930.28
2022-12-05T06:50:28.230Z,930.29
2022-12-05T06:51:28.238Z,930.30
2022-12-05T06:52:28.262Z,930.27
2022-12-05T06:53:28.288Z,930.25
2022-12-05T06:54:28.293Z,930.27
2022-12-05T06:55:28.305Z,930.27
2022-12-05T06:56:28.321Z,930.22
2022-12-05T06:57:28.346Z,930.25
2022-12-05T06:58:28.387Z,930.26
2022-12-05T06:59:28.372Z,930.26
2022-12-05T07:00:28.389Z,930.30
2022-12-05T07:01:28.493Z,930.30
2022-12-05T07:02:28.461Z,930.28
2022-12-05T07:03:28.459Z,930.30
2022-12-05T07:04:28.452Z,930.30
2022-12-05T07:05:28.480Z,930.32
2022-12-05T07:06:28.484Z,930.28
2022-12-05T07:07:28.503Z,930.27
2022-12-05T07:08:28.518Z,930.29
2022-12-05T07:09:28.543Z,930.31
2022-12-05T07:10:28.572Z,930.30
2022-12-05T07:11:28.568Z,930.30
2022-12-05T07:12:28.591Z,930.30
2022-12-05T07:13:28.601Z,930.28
2022-12-05T07:14:46.939Z,930.31
2022-12-05T07:15:28.640Z,930.28
2022-12-05T07:16:28.675Z,930.31
2022-12-05T07:17:28.697Z,930.29
2022-12-05T07:18:28.689Z,930.31
2022-12-05T07:19:28.708Z,930.30
2022-12-05T07:20:43.142Z,930.33
2022-12-05T07:21:28.731Z,930.34
2022-12-05T07:22:28.855Z,930.31
2022-12-05T07:23:28.773Z,930.29
2022-12-05T07:24:28.789Z,930.32
2022-12-05T07:25:28.805Z,930.28
2022-12-05T07:26:28.821Z,930.29
2022-12-05T07:27:28.831Z,930.33
2022-12-05T07:28:28.853Z,930.33
2022-12-05T07:29:28.871Z,930.33
2022-12-05T07:30:28.901Z,930.29
2022-12-05T07:31:28.986Z,930.28
2022-12-05T07:32:28.921Z,930.34
2022-12-05T07:33:28.928Z,930.30
2022-12-05T07:34:28.953Z,930.29
2022-12-05T07:35:28.962Z,930.30
2022-12-05T07:36:28.976Z,930.31
2022-12-05T07:37:29.001Z,930.31
2022-12-05T07:38:29.011Z,930.25
2022-12-05T07:39:29.035Z,930.30
2022-12-05T07:40:29.050Z,930.27
2022-12-05T07:41:29.066Z,930.27
2022-12-05T07:42:29.077Z,930.26
2022-12-05T07:43:29.094Z,930.24
2022-12-05T07:44:29.111Z,930.26
2022-12-05T07:45:29.243Z,930.20
2022-12-05T07:46:29.328Z,930.25
2022-12-05T07:47:29.244Z,930.25
2022-12-05T07:48:29.183Z,930.27
2022-12-05T07:49:29.207Z,930.27
2022-12-05T07:50:29.213Z,930.30
2022-12-05T07:51:29.224Z,930.29
2022-12-05T07:52:29.247Z,930.28
2022-12-05T07:53:29.255Z,930.29
2022-12-05T07:54:29.273Z,930.35
2022-12-05T07:55:29.288Z,930.31
2022-12-05T07:56:29.312Z,930.36
2022-12-05T07:57:29.327Z,930.35
2022-12-05T07:58:29.341Z,930.35
2022-12-05T07:59:29.354Z,930.38
2022-12-05T08:00:29.379Z,930.39
2022-12-05T08:01:29.542Z,930.44
2022-12-05T08:02:29.526Z,930.44
2022-12-05T08:03:29.419Z,930.47
2022-12-05T08:04:29.434Z,930.49
2022-12-05T08:05:29.459Z,930.47
2022-12-05T08:06:29.476Z,930.50
2022-12-05T08:07:29.583Z,930.53
2022-12-05T08:08:29.501Z,930.52
2022-12-05T08:09:29.518Z,930.54
2022-12-05T08:10:29.533Z,930.53
2022-12-05T08:11:29.550Z,930.52
2022-12-05T08:12:29.574Z,930.60
2022-12-05T08:13:29.591Z,930.61
2022-12-05T08:14:29.600Z,930.61
2022-12-05T08:15:29.615Z,930.64
2022-12-05T08:16:29.727Z,930.69
2022-12-05T08:17:29.656Z,930.77
2022-12-05T08:18:29.692Z,930.75
2022-12-05T08:19:29.681Z,930.78
2022-12-05T08:20:29.704Z,930.82
2022-12-05T08:21:29.720Z,930.86
2022-12-05T08:22:29.737Z,930.83
2022-12-05T08:23:29.748Z,930.84
2022-12-05T08:24:29.763Z,930.88
2022-12-05T08:25:29.785Z,930.90
2022-12-05T08:26:29.797Z,930.87
2022-12-05T08:27:29.821Z,930.91
2022-12-05T08:28:29.836Z,930.91
2022-12-05T08:29:29.846Z,930.90
2022-12-05T08:30:29.902Z,930.90
2022-12-05T08:31:29.960Z,930.95
2022-12-05T08:32:29.893Z,930.91
2022-12-05T08:33:29.917Z,930.93
2022-12-05T08:34:29.954Z,930.94
2022-12-05T08:35:29.972Z,930.92
2022-12-05T08:36:29.961Z,930.92
2022-12-05T08:37:29.982Z,930.96
2022-12-05T08:38:29.997Z,930.94
2022-12-05T08:39:33.924Z,930.92
2022-12-05T08:40:30.025Z,930.94
2022-12-05T08:41:30.365Z,930.90
2022-12-05T08:42:30.062Z,930.93
2022-12-05T08:43:30.086Z,930.94
2022-12-05T08:44:30.091Z,930.96
2022-12-05T08:45:30.115Z,930.97
2022-12-05T08:46:30.231Z,930.96
2022-12-05T08:47:32.363Z,931.01
2022-12-05T08:48:30.162Z,931.00
2022-12-05T08:49:30.176Z,931.01
2022-12-05T08:50:30.210Z,931.00
2022-12-05T08:51:30.211Z,931.05
2022-12-05T08:52:30.220Z,931.02
2022-12-05T08:53:30.235Z,931.05
2022-12-05T08:54:30.251Z,931.08
2022-12-05T08:55:30.272Z,931.07
2022-12-05T08:56:30.293Z,931.09
2022-12-05T08:57:30.307Z,931.11
2022-12-05T08:58:30.318Z,931.13
2022-12-05T08:59:30.340Z,931.15
2022-12-05T09:00:30.358Z,931.17
2022-12-05T09:01:30.510Z,931.14
2022-12-05T09:02:30.464Z,931.14
2022-12-05T09:03:30.405Z,931.14
2022-12-05T09:04:30.422Z,931.15
2022-12-05T09:05:30.742Z,931.18
2022-12-05T09:06:30.478Z,931.22
2022-12-05T09:07:30.521Z,931.21
2022-12-05T09:08:30.482Z,931.22
2022-12-05T09:09:30.494Z,931.26
2022-12-05T09:10:30.520Z,931.28
2022-12-05T09:11:30.550Z,931.26
2022-12-05T09:12:30.552Z,931.24
2022-12-05T09:13:30.559Z,931.27
2022-12-05T09:14:30.585Z,931.26
2022-12-05T09:15:30.659Z,931.27
2022-12-05T09:16:36.479Z,931.32
2022-12-05T09:17:30.632Z,931.27
2022-12-05T09:18:30.645Z,931.31
2022-12-05T09:19:30.671Z,931.34
2022-12-05T09:20:30.681Z,931.27
2022-12-05T09:21:30.700Z,931.33
2022-12-05T09:22:30.724Z,931.30
2022-12-05T09:23:30.731Z,931.37
2022-12-05T09:24:30.741Z,931.37
2022-12-05T09:25:30.762Z,931.37
2022-12-05T09:26:30.778Z,931.39
2022-12-05T09:27:30.796Z,931.37
2022-12-05T09:28:30.805Z,931.39
2022-12-05T09:29:30.854Z,931.41
2022-12-05T09:30:30.848Z,931.43
2022-12-05T09:31:30.920Z,931.42
2022-12-05T09:32:30.871Z,931.42
2022-12-05T09:33:30.892Z,931.42
2022-12-05T09:34:30.910Z,931.47
2022-12-05T09:35:30.927Z,931.46
2022-12-05T09:36:30.941Z,931.46
2022-12-05T09:37:39.159Z,931.48
2022-12-05T09:38:30.987Z,931.51
2022-12-05T09:39:30.983Z,931.48
2022-12-05T09:40:31.002Z,931.53
2022-12-05T09:41:31.015Z,931.52
2022-12-05T09:42:31.033Z,931.52
2022-12-05T09:43:31.052Z,931.55
2022-12-05T09:44:31.065Z,931.54
2022-12-05T09:45:31.086Z,931.54
2022-12-05T09:46:35.436Z,931.58
2022-12-05T09:47:31.120Z,931.58
2022-12-05T09:48:31.139Z,931.59
2022-12-05T09:49:31.151Z,931.57
2022-12-05T09:50:31.171Z,931.61
2022-12-05T09:51:31.178Z,931.58
2022-12-05T09:52:31.194Z,931.63
2022-12-05T09:53:31.238Z,931.65
2022-12-05T09:54:31.245Z,931.67
2022-12-05T09:55:31.252Z,931.68
2022-12-05T09:56:31.266Z,931.72
2022-12-05T09:57:33.879Z,931.72
2022-12-05T09:58:31.299Z,931.71
2022-12-05T09:59:31.316Z,931.75
2022-12-05T10:00:31.336Z,931.74
2022-12-05T10:01:31.517Z,931.78
2022-12-05T10:02:31.363Z,931.79
2022-12-05T10:03:31.403Z,931.78
2022-12-05T10:04:31.472Z,931.79
2022-12-05T10:05:31.466Z,931.77
2022-12-05T10:06:31.445Z,931.82
2022-12-05T10:07:31.551Z,931.84
2022-12-05T10:08:31.463Z,931.84
2022-12-05T10:09:31.477Z,931.86
2022-12-05T10:10:31.514Z,931.83
2022-12-05T10:11:31.515Z,931.86
2022-12-05T10:12:31.527Z,931.85
2022-12-05T10:13:31.546Z,931.89
2022-12-05T10:14:31.550Z,931.93
2022-12-05T10:15:31.703Z,931.91
2022-12-05T10:16:31.860Z,931.94
2022-12-05T10:17:31.598Z,931.93
2022-12-05T10:18:31.616Z,931.93
2022-12-05T10:19:31.633Z,931.94
2022-12-05T10:20:31.656Z,931.97
2022-12-05T10:21:31.665Z,931.95
2022-12-05T10:22:31.698Z,931.95
2022-12-05T10:23:56.556Z,931.96
2022-12-05T10:24:31.733Z,931.98
2022-12-05T10:25:31.729Z,932.03
2022-12-05T10:26:31.775Z,932.05
2022-12-05T10:27:36.756Z,932.05
2022-12-05T10:28:31.801Z,932.08
2022-12-05T10:29:31.798Z,932.07
2022-12-05T10:30:31.818Z,932.09
2022-12-05T10:31:31.940Z,932.12
2022-12-05T10:32:31.853Z,932.12
2022-12-05T10:33:31.859Z,932.13
2022-12-05T10:34:31.887Z,932.12
2022-12-05T10:35:31.906Z,932.12
2022-12-05T10:36:31.920Z,932.12
2022-12-05T10:37:31.937Z,932.13
2022-12-05T10:38:31.943Z,932.12
2022-12-05T10:39:31.964Z,932.18
2022-12-05T10:40:31.975Z,932.17
2022-12-05T10:41:31.988Z,932.20
2022-12-05T10:42:32.035Z,932.16
2022-12-05T10:43:32.029Z,932.18
2022-12-05T10:44:32.045Z,932.20
2022-12-05T10:45:32.055Z,932.20
2022-12-05T10:46:32.204Z,932.25
2022-12-05T10:47:32.095Z,932.25
2022-12-05T10:48:32.106Z,932.27
2022-12-05T10:49:32.119Z,932.30
2022-12-05T10:50:32.135Z,932.30
2022-12-05T10:51:37.205Z,932.34
2022-12-05T10:52:32.182Z,932.36
2022-12-05T10:53:32.192Z,932.36
2022-12-05T10:54:32.200Z,932.33
2022-12-05T10:55:32.219Z,932.36
2022-12-05T10:56:32.232Z,932.38
2022-12-05T10:57:32.256Z,932.41
2022-12-05T10:58:32.285Z,932.43
2022-12-05T10:59:32.327Z,932.43
2022-12-05T11:00:32.501Z,932.43
2022-12-05T11:01:32.379Z,932.44
2022-12-05T11:02:32.338Z,932.44
2022-12-05T11:03:32.348Z,932.43
2022-12-05T11:04:32.370Z,932.46
2022-12-05T11:05:32.428Z,932.46
2022-12-05T11:06:32.397Z,932.45
2022-12-05T11:07:32.493Z,932.47
2022-12-05T11:09:02.495Z,932.43
2022-12-05T11:09:32.450Z,932.45
2022-12-05T11:10:32.468Z,932.47
2022-12-05T11:11:32.478Z,932.46
2022-12-05T11:12:32.499Z,932.47
2022-12-05T11:13:32.509Z,932.47
2022-12-05T11:14:32.549Z,932.44
2022-12-05T11:15:32.540Z,932.50
2022-12-05T11:16:32.615Z,932.47
2022-12-05T11:17:32.582Z,932.48
2022-12-05T11:18:32.597Z,932.49
2022-12-05T11:19:32.614Z,932.50
2022-12-05T11:20:32.623Z,932.55
2022-12-05T11:21:32.638Z,932.54
2022-12-05T11:22:32.661Z,932.55
2022-12-05T11:23:32.677Z,932.55
2022-12-05T11:24:32.694Z,932.55
2022-12-05T11:25:32.707Z,932.56
2022-12-05T11:26:32.728Z,932.55
2022-12-05T11:27:32.737Z,932.59
2022-12-05T11:28:32.760Z,932.62
2022-12-05T11:29:32.776Z,932.68
2022-12-05T11:30:32.816Z,932.63
2022-12-05T11:31:32.931Z,932.69
2022-12-05T11:32:32.827Z,932.71
2022-12-05T11:33:32.842Z,932.71
2022-12-05T11:34:32.855Z,932.70
2022-12-05T11:35:32.871Z,932.72
2022-12-05T11:36:32.881Z,932.67
2022-12-05T11:37:32.896Z,932.65
2022-12-05T11:38:32.914Z,932.67
2022-12-05T11:39:32.943Z,932.71
2022-12-05T11:40:38.125Z,932.68
2022-12-05T11:41:32.973Z,932.71
2022-12-05T11:42:32.978Z,932.70
2022-12-05T11:43:33.003Z,932.73
2022-12-05T11:44:33.013Z,932.73
2022-12-05T11:45:33.038Z,932.73
2022-12-05T11:46:33.132Z,932.73
2022-12-05T11:47:33.066Z,932.74
2022-12-05T11:48:33.086Z,932.72
2022-12-05T11:49:33.101Z,932.75
2022-12-05T11:50:33.120Z,932.73
2022-12-05T11:51:33.133Z,932.72
2022-12-05T11:52:38.932Z,932.70
2022-12-05T11:53:33.165Z,932.71
2022-12-05T11:55:03.490Z,932.71
2022-12-05T11:55:33.199Z,932.72
2022-12-05T11:56:33.205Z,932.69
2022-12-05T11:57:33.221Z,932.70
2022-12-05T11:58:33.246Z,932.71
2022-12-05T11:59:33.253Z,932.71
2022-12-05T12:00:33.278Z,932.71
2022-12-05T12:01:33.294Z,932.72
2022-12-05T12:02:33.451Z,932.71
2022-12-05T12:03:33.866Z,932.72
2022-12-05T12:04:33.336Z,932.71
2022-12-05T12:05:33.363Z,932.66
2022-12-05T12:06:33.370Z,932.67
2022-12-05T12:07:33.447Z,932.70
2022-12-05T12:08:33.405Z,932.68
2022-12-05T12:09:33.419Z,932.69
2022-12-05T12:10:33.438Z,932.65
2022-12-05T12:11:33.452Z,932.69
2022-12-05T12:12:33.466Z,932.74
2022-12-05T12:13:33.487Z,932.73
2022-12-05T12:14:33.505Z,932.74
2022-12-05T12:15:33.525Z,932.74
2022-12-05T12:16:33.584Z,932.75
2022-12-05T12:17:33.555Z,932.79
2022-12-05T12:18:33.589Z,932.77
2022-12-05T12:19:33.587Z,932.78
2022-12-05T12:20:33.601Z,932.79
2022-12-05T12:21:38.397Z,932.85
2022-12-05T12:22:33.635Z,932.92
2022-12-05T12:23:33.653Z,932.85
2022-12-05T12:24:33.668Z,932.90
2022-12-05T12:25:33.686Z,932.87
2022-12-05T12:26:33.694Z,932.86
2022-12-05T12:27:33.719Z,932.90
2022-12-05T12:28:33.740Z,932.87